createdAt,value
2023-05-05T00:02:07.582Z,101077.63
2023-05-05T00:05:09.397Z,101062.91
2023-05-05T00:08:11.042Z,101073.59
2023-05-05T00:11:12.654Z,101090.00
2023-05-05T00:14:14.307Z,101083.53
2023-05-05T00:17:15.977Z,101062.44
2023-05-05T00:20:17.633Z,101087.25
2023-05-05T00:23:19.814Z,101085.25
2023-05-05T00:26:21.430Z,101082.00
2023-05-05T00:29:23.025Z,101052.38
2023-05-05T00:32:24.638Z,101073.47
2023-05-05T00:35:26.965Z,101063.91
2023-05-05T00:38:28.838Z,101070.75
2023-05-05T00:41:31.626Z,101068.47
2023-05-05T00:44:38.114Z,101068.25
2023-05-05T00:47:42.026Z,101061.28
2023-05-05T00:50:45.008Z,101072.22
2023-05-05T00:53:47.685Z,101068.97
2023-05-05T00:56:50.905Z,101069.72
2023-05-05T00:59:53.127Z,101067.06
2023-05-05T01:02:54.930Z,101063.44
2023-05-05T01:06:15.615Z,101052.22
2023-05-05T01:09:36.659Z,101062.75
2023-05-05T01:12:49.036Z,101065.41
2023-05-05T01:16:09.252Z,101040.31
2023-05-05T01:19:35.575Z,101058.78
2023-05-05T01:22:45.298Z,101034.81
2023-05-05T01:26:12.539Z,101051.44
2023-05-05T01:29:22.989Z,101057.19
2023-05-05T01:32:27.218Z,101058.63
2023-05-05T01:35:37.965Z,101032.38
2023-05-05T01:38:42.514Z,101053.09
2023-05-05T01:41:49.202Z,101046.78
2023-05-05T01:44:53.256Z,101049.59
2023-05-05T01:47:57.320Z,101049.75
2023-05-05T01:51:03.007Z,101042.25
2023-05-05T01:54:08.190Z,101040.59
2023-05-05T01:57:11.382Z,101051.88
2023-05-05T02:00:14.777Z,101059.41
2023-05-05T02:03:18.096Z,101054.00
2023-05-05T02:06:21.930Z,101056.25
2023-05-05T02:09:26.816Z,101029.72
2023-05-05T02:12:30.266Z,101049.88
2023-05-05T02:15:33.767Z,101048.53
2023-05-05T02:18:36.368Z,101039.53
2023-05-05T02:21:38.170Z,101052.69
2023-05-05T02:24:39.725Z,101047.56
2023-05-05T02:27:43.796Z,101039.75
2023-05-05T02:30:54.721Z,101049.31
2023-05-05T02:33:58.019Z,101038.59
2023-05-05T02:37:03.602Z,101044.81
2023-05-05T02:40:08.677Z,101044.81
2023-05-05T02:43:15.620Z,101047.78
2023-05-05T02:46:17.925Z,101047.06
2023-05-05T02:49:19.749Z,101051.69
2023-05-05T02:52:21.490Z,101051.09
2023-05-05T02:55:23.229Z,101043.75
2023-05-05T02:58:31.575Z,101040.63
2023-05-05T03:01:49.550Z,101046.50
2023-05-05T03:05:24.877Z,101049.19
2023-05-05T03:08:54.158Z,101053.09
2023-05-05T03:12:04.407Z,101058.03
2023-05-05T03:15:09.331Z,101048.81
2023-05-05T03:18:12.136Z,101058.38
2023-05-05T03:21:14.386Z,101048.63
2023-05-05T03:24:20.352Z,101068.81
2023-05-05T03:27:21.974Z,101062.94
2023-05-05T03:30:23.551Z,101064.50
2023-05-05T03:33:25.124Z,101056.19
2023-05-05T03:36:29.196Z,101051.22
2023-05-05T03:39:31.264Z,101055.66
2023-05-05T03:42:32.824Z,101066.25
2023-05-05T03:45:34.378Z,101064.38
2023-05-05T03:48:36.143Z,101068.34
2023-05-05T03:51:37.742Z,101060.63
2023-05-05T03:54:39.384Z,101058.09
2023-05-05T03:57:40.978Z,101080.19
2023-05-05T04:00:42.576Z,101070.88
2023-05-05T04:03:44.293Z,101074.97
2023-05-05T04:06:45.968Z,101070.44
2023-05-05T04:09:47.506Z,101067.94
2023-05-05T04:12:49.211Z,101079.53
2023-05-05T04:15:51.102Z,101062.31
2023-05-05T04:18:52.719Z,101083.56
2023-05-05T04:21:54.290Z,101081.91
2023-05-05T04:24:55.903Z,101080.47
2023-05-05T04:27:57.478Z,101086.03
2023-05-05T04:31:01.169Z,101092.84
2023-05-05T04:34:02.805Z,101075.09
2023-05-05T04:37:04.378Z,101090.88
2023-05-05T04:40:06.967Z,101090.97
2023-05-05T04:43:08.700Z,101098.41
2023-05-05T04:46:10.327Z,101084.47
2023-05-05T04:49:11.924Z,101096.41
2023-05-05T04:52:14.179Z,101099.53
2023-05-05T04:55:15.817Z,101093.28
2023-05-05T04:58:17.455Z,101092.00
2023-05-05T05:01:19.022Z,101096.81
2023-05-05T05:04:21.736Z,101100.63
2023-05-05T05:07:23.476Z,101092.00
2023-05-05T05:10:25.078Z,101080.03
2023-05-05T05:13:26.673Z,101110.91
2023-05-05T05:16:28.445Z,101118.31
2023-05-05T05:19:30.037Z,101106.94
2023-05-05T05:22:31.816Z,101111.69
2023-05-05T05:25:33.408Z,101092.63
2023-05-05T05:28:34.971Z,101105.63
2023-05-05T05:31:36.908Z,101098.53
2023-05-05T05:34:38.569Z,101095.47
2023-05-05T05:37:40.123Z,101096.06
2023-05-05T05:40:41.885Z,101110.97
2023-05-05T05:43:43.456Z,101118.63
2023-05-05T05:46:45.031Z,101114.16
2023-05-05T05:49:46.627Z,101119.66
2023-05-05T05:52:48.239Z,101121.81
2023-05-05T05:55:49.792Z,101117.09
2023-05-05T05:58:51.550Z,101126.31
2023-05-05T06:01:53.449Z,101132.97
2023-05-05T06:04:55.157Z,101125.16
2023-05-05T06:07:56.883Z,101118.53
2023-05-05T06:11:00.518Z,101121.94
2023-05-05T06:14:02.142Z,101116.06
2023-05-05T06:17:03.769Z,101117.63
2023-05-05T06:20:06.212Z,101114.34
2023-05-05T06:23:07.863Z,101121.16
2023-05-05T06:26:09.469Z,101114.13
2023-05-05T06:29:12.425Z,101092.00
2023-05-05T06:32:14.161Z,101112.53
2023-05-05T06:35:15.843Z,101113.97
2023-05-05T06:38:17.399Z,101103.22
2023-05-05T06:41:18.954Z,101106.25
2023-05-05T06:44:20.526Z,101089.72
2023-05-05T06:47:22.890Z,101097.09
2023-05-05T06:50:24.460Z,101101.19
2023-05-05T06:53:26.032Z,101106.84
2023-05-05T06:56:28.076Z,101111.81
2023-05-05T06:59:29.655Z,101112.53
2023-05-05T07:02:31.752Z,101116.94
2023-05-05T07:05:33.473Z,101114.25
2023-05-05T07:08:35.087Z,101118.22
2023-05-05T07:11:37.919Z,101112.50
2023-05-05T07:14:39.527Z,101122.50
2023-05-05T07:17:41.349Z,101120.50
2023-05-05T07:20:44.491Z,101119.28
2023-05-05T07:23:47.810Z,101110.44
2023-05-05T07:26:49.597Z,101116.19
2023-05-05T07:29:51.350Z,101115.22
2023-05-05T07:32:52.976Z,101108.41
2023-05-05T07:35:54.829Z,101110.97
2023-05-05T07:38:56.547Z,101103.09
2023-05-05T07:41:58.291Z,101113.25
2023-05-05T07:44:59.884Z,101103.50
2023-05-05T07:48:01.608Z,101111.94
2023-05-05T07:51:03.884Z,101104.81
2023-05-05T07:54:06.098Z,101108.34
2023-05-05T07:57:07.704Z,101100.56
2023-05-05T08:00:10.855Z,101108.44
2023-05-05T08:03:13.114Z,101113.78
2023-05-05T08:06:22.032Z,101115.75
2023-05-05T08:09:23.702Z,101100.69
2023-05-05T08:12:25.287Z,101101.34
2023-05-05T08:15:26.867Z,101094.28
2023-05-05T08:18:28.554Z,101110.59
2023-05-05T08:21:30.169Z,101099.84
2023-05-05T08:24:31.740Z,101109.00
2023-05-05T08:27:35.308Z,101102.72
2023-05-05T08:30:36.895Z,101108.78
2023-05-05T08:33:38.506Z,101118.88
2023-05-05T08:36:40.101Z,101116.69
2023-05-05T08:39:41.741Z,101107.53
2023-05-05T08:42:45.609Z,101113.56
2023-05-05T08:45:47.858Z,101106.13
2023-05-05T08:48:52.492Z,101092.94
2023-05-05T08:51:54.890Z,101098.19
2023-05-05T08:55:10.776Z,101105.28
2023-05-05T08:58:13.767Z,101092.38
2023-05-05T09:01:15.744Z,101086.38
2023-05-05T09:04:19.190Z,101087.13
2023-05-05T09:07:21.154Z,101081.63
2023-05-05T09:10:24.672Z,101087.97
2023-05-05T09:13:29.274Z,101083.06
2023-05-05T09:16:30.851Z,101076.00
2023-05-05T09:19:32.440Z,101077.53
2023-05-05T09:22:39.386Z,101080.63
2023-05-05T09:25:44.726Z,101080.97
2023-05-05T09:28:52.674Z,101072.38
2023-05-05T09:32:10.820Z,101061.97
2023-05-05T09:35:12.471Z,101066.66
2023-05-05T09:38:14.058Z,101062.56
2023-05-05T09:41:23.622Z,101054.72
2023-05-05T09:44:35.963Z,101059.47
2023-05-05T09:47:38.001Z,101059.47
2023-05-05T09:50:45.460Z,101055.16
2023-05-05T09:53:47.133Z,101059.06
2023-05-05T09:56:48.822Z,101061.59
2023-05-05T10:00:01.391Z,101047.66
2023-05-05T10:03:03.208Z,101052.47
2023-05-05T10:06:07.714Z,101049.97
2023-05-05T10:09:09.482Z,101041.31
2023-05-05T10:12:11.104Z,101045.72
2023-05-05T10:15:15.113Z,101040.59
2023-05-05T10:18:23.686Z,101037.50
2023-05-05T10:21:26.546Z,101049.72
2023-05-05T10:24:52.538Z,101046.56
2023-05-05T10:27:58.943Z,101037.31
2023-05-05T10:31:07.656Z,101014.69
2023-05-05T10:34:38.317Z,101032.91
2023-05-05T10:37:41.610Z,101019.72
2023-05-05T10:40:48.556Z,101011.50
2023-05-05T10:43:51.682Z,101008.41
2023-05-05T10:46:53.379Z,101009.47
2023-05-05T10:50:09.419Z,100996.13
2023-05-05T10:53:19.421Z,101000.63
2023-05-05T10:56:29.261Z,100996.44
2023-05-05T10:59:37.041Z,101000.13
2023-05-05T11:02:40.200Z,100984.97
2023-05-05T11:06:09.374Z,100991.22
2023-05-05T11:09:29.663Z,100996.78
2023-05-05T11:12:34.286Z,100982.56
2023-05-05T11:15:38.021Z,100972.56
2023-05-05T11:18:44.367Z,100972.38
2023-05-05T11:22:04.433Z,100967.53
2023-05-05T11:25:37.236Z,100969.91
2023-05-05T11:28:57.495Z,100966.34
2023-05-05T11:32:13.169Z,100969.50
2023-05-05T11:35:15.562Z,100953.34
2023-05-05T11:38:21.114Z,100962.19
2023-05-05T11:41:34.436Z,100958.72
2023-05-05T11:44:36.219Z,100948.53
2023-05-05T11:47:37.889Z,100945.31
2023-05-05T11:50:40.151Z,100939.63
2023-05-05T11:53:46.057Z,100948.72
2023-05-05T11:56:51.593Z,100938.75
2023-05-05T11:59:58.763Z,100934.06
2023-05-05T12:03:00.547Z,100924.06
2023-05-05T12:06:03.759Z,100935.38
2023-05-05T12:09:06.507Z,100931.81
2023-05-05T12:12:08.108Z,100932.63
2023-05-05T12:15:10.188Z,100920.88
2023-05-05T12:18:19.299Z,100921.09
2023-05-05T12:21:22.312Z,100922.09
2023-05-05T12:24:24.086Z,100906.31
2023-05-05T12:27:27.351Z,100915.91
2023-05-05T12:30:29.027Z,100908.69
2023-05-05T12:33:31.566Z,100890.69
2023-05-05T12:36:34.071Z,100900.03
2023-05-05T12:39:39.362Z,100898.69
2023-05-05T12:42:41.343Z,100889.28
2023-05-05T12:45:42.993Z,100892.69
2023-05-05T12:48:47.395Z,100888.56
2023-05-05T12:51:54.348Z,100892.69
2023-05-05T12:54:57.813Z,100876.69
2023-05-05T12:58:04.458Z,100884.84
2023-05-05T13:01:10.807Z,100876.13
2023-05-05T13:04:14.174Z,100874.88
2023-05-05T13:07:19.633Z,100868.00
2023-05-05T13:10:21.306Z,100857.59
2023-05-05T13:13:22.875Z,100857.16
2023-05-05T13:16:24.557Z,100857.63
2023-05-05T13:19:26.693Z,100850.19
2023-05-05T13:22:28.274Z,100846.81
2023-05-05T13:25:29.866Z,100833.78
2023-05-05T13:28:31.394Z,100843.91
2023-05-05T13:31:33.079Z,100841.47
2023-05-05T13:34:34.939Z,100832.53
2023-05-05T13:37:36.553Z,100832.34
2023-05-05T13:40:38.153Z,100827.53
2023-05-05T13:43:39.729Z,100830.09
2023-05-05T13:46:42.631Z,100826.66
2023-05-05T13:49:44.283Z,100823.53
2023-05-05T13:52:45.906Z,100826.97
2023-05-05T13:55:47.662Z,100809.06
2023-05-05T13:58:49.215Z,100817.91
2023-05-05T14:01:50.792Z,100817.44
2023-05-05T14:04:52.362Z,100814.03
2023-05-05T14:07:56.642Z,100802.50
2023-05-05T14:10:58.215Z,100812.38
2023-05-05T14:13:59.803Z,100803.00
2023-05-05T14:17:01.483Z,100805.28
2023-05-05T14:20:03.652Z,100795.78
2023-05-05T14:23:05.199Z,100804.53
2023-05-05T14:26:08.884Z,100798.44
2023-05-05T14:29:10.720Z,100795.97
2023-05-05T14:32:12.389Z,100790.31
2023-05-05T14:35:13.993Z,100789.63
2023-05-05T14:38:15.663Z,100773.78
2023-05-05T14:41:17.326Z,100774.22
2023-05-05T14:44:18.953Z,100783.25
2023-05-05T14:47:20.707Z,100784.34
2023-05-05T14:50:22.457Z,100777.84
2023-05-05T14:53:24.099Z,100782.16
2023-05-05T14:56:26.544Z,100771.44
2023-05-05T14:59:28.904Z,100780.75
2023-05-05T15:02:30.848Z,100772.09
2023-05-05T15:05:32.500Z,100785.00
2023-05-05T15:08:34.306Z,100782.63
2023-05-05T15:11:35.872Z,100779.91
2023-05-05T15:14:38.210Z,100785.19
2023-05-05T15:17:41.737Z,100777.53
2023-05-05T15:20:43.584Z,100779.75
2023-05-05T15:23:45.161Z,100774.84
2023-05-05T15:26:46.708Z,100770.34
2023-05-05T15:29:48.841Z,100757.00
2023-05-05T15:32:50.553Z,100771.25
2023-05-05T15:35:52.152Z,100761.38
2023-05-05T15:38:53.708Z,100754.88
2023-05-05T15:41:55.345Z,100759.41
2023-05-05T15:44:56.899Z,100741.22
2023-05-05T15:47:58.517Z,100754.63
2023-05-05T15:51:00.115Z,100756.91
2023-05-05T15:54:01.840Z,100752.72
2023-05-05T15:57:03.450Z,100750.94
2023-05-05T16:00:06.039Z,100757.97
2023-05-05T16:03:07.747Z,100747.41
2023-05-05T16:06:13.810Z,100753.38
2023-05-05T16:09:15.386Z,100740.63
2023-05-05T16:12:16.952Z,100744.06
2023-05-05T16:15:18.531Z,100738.69
2023-05-05T16:18:20.116Z,100740.88
2023-05-05T16:21:21.697Z,100746.03
2023-05-05T16:24:23.436Z,100737.63
2023-05-05T16:27:24.994Z,100725.34
2023-05-05T16:30:26.809Z,100739.72
2023-05-05T16:33:28.864Z,100733.19
2023-05-05T16:36:31.771Z,100729.63
2023-05-05T16:39:33.995Z,100727.16
2023-05-05T16:42:35.559Z,100738.06
2023-05-05T16:45:37.157Z,100732.75
2023-05-05T16:48:38.742Z,100730.00
2023-05-05T16:51:40.850Z,100733.47
2023-05-05T16:54:43.597Z,100729.31
2023-05-05T16:57:45.436Z,100736.72
2023-05-05T17:00:48.996Z,100721.28
2023-05-05T17:03:50.631Z,100730.03
2023-05-05T17:06:52.323Z,100740.19
2023-05-05T17:09:53.916Z,100723.59
2023-05-05T17:12:55.609Z,100737.34
2023-05-05T17:15:57.419Z,100744.72
2023-05-05T17:18:59.011Z,100725.53
2023-05-05T17:22:01.303Z,100725.88
2023-05-05T17:25:03.333Z,100733.25
2023-05-05T17:28:05.265Z,100739.34
2023-05-05T17:31:06.935Z,100735.41
2023-05-05T17:34:08.511Z,100742.03
2023-05-05T17:37:10.169Z,100727.63
2023-05-05T17:40:11.887Z,100740.06
2023-05-05T17:43:13.437Z,100738.28
2023-05-05T17:46:15.038Z,100745.97
2023-05-05T17:49:16.741Z,100748.09
2023-05-05T17:52:18.350Z,100735.66
2023-05-05T17:55:20.218Z,100738.25
2023-05-05T17:58:21.826Z,100740.94
2023-05-05T18:01:27.816Z,100751.63
2023-05-05T18:04:29.451Z,100747.44
2023-05-05T18:07:31.804Z,100724.16
2023-05-05T18:10:33.420Z,100754.19
2023-05-05T18:13:35.215Z,100749.41
2023-05-05T18:16:36.813Z,100746.81
2023-05-05T18:19:42.300Z,100764.25
2023-05-05T18:22:45.432Z,100748.31
2023-05-05T18:25:47.021Z,100752.72
2023-05-05T18:28:48.619Z,100760.13
2023-05-05T18:31:54.869Z,100764.50
2023-05-05T18:34:56.593Z,100759.72
2023-05-05T18:37:58.151Z,100765.06
2023-05-05T18:40:59.718Z,100766.22
2023-05-05T18:44:01.389Z,100762.09
2023-05-05T18:47:03.043Z,100769.78
2023-05-05T18:50:05.972Z,100769.91
2023-05-05T18:53:07.563Z,100762.06
2023-05-05T18:56:09.155Z,100779.22
2023-05-05T18:59:10.702Z,100774.06
2023-05-05T19:02:12.250Z,100774.53
2023-05-05T19:05:13.834Z,100775.19
2023-05-05T19:08:15.491Z,100767.72
2023-05-05T19:11:17.090Z,100780.69
2023-05-05T19:14:18.868Z,100777.97
2023-05-05T19:17:20.456Z,100773.97
2023-05-05T19:20:22.330Z,100779.75
2023-05-05T19:23:23.914Z,100774.72
2023-05-05T19:26:26.275Z,100779.28
2023-05-05T19:29:27.978Z,100783.22
2023-05-05T19:32:29.622Z,100775.25
2023-05-05T19:35:31.370Z,100780.38
2023-05-05T19:38:32.963Z,100774.19
2023-05-05T19:41:35.463Z,100783.66
2023-05-05T19:44:37.094Z,100772.00
2023-05-05T19:47:38.724Z,100771.75
2023-05-05T19:50:40.373Z,100773.53
2023-05-05T19:53:42.979Z,100780.06
2023-05-05T19:56:44.572Z,100781.00
2023-05-05T19:59:48.558Z,100780.25
2023-05-05T20:02:50.242Z,100771.00
2023-05-05T20:05:51.805Z,100768.59
2023-05-05T20:08:54.764Z,100763.19
2023-05-05T20:11:58.675Z,100763.88
2023-05-05T20:15:00.551Z,100767.91
2023-05-05T20:18:02.172Z,100772.91
2023-05-05T20:21:03.944Z,100770.06
2023-05-05T20:24:06.447Z,100767.72
2023-05-05T20:27:08.048Z,100772.50
2023-05-05T20:30:10.734Z,100778.44
2023-05-05T20:33:12.614Z,100777.34
2023-05-05T20:36:14.211Z,100765.28
2023-05-05T20:39:16.281Z,100764.97
2023-05-05T20:42:17.876Z,100758.59
2023-05-05T20:45:19.622Z,100765.03
2023-05-05T20:48:21.222Z,100752.78
2023-05-05T20:51:22.818Z,100760.91
2023-05-05T20:54:24.366Z,100763.63
2023-05-05T20:57:26.179Z,100762.69
2023-05-05T21:00:27.829Z,100764.34
2023-05-05T21:03:29.426Z,100765.63
2023-05-05T21:06:32.323Z,100755.09
2023-05-05T21:09:35.337Z,100765.19
2023-05-05T21:12:37.329Z,100765.75
2023-05-05T21:15:39.025Z,100772.47
2023-05-05T21:18:40.768Z,100764.72
2023-05-05T21:21:42.348Z,100759.44
2023-05-05T21:24:43.935Z,100757.38
2023-05-05T21:27:47.470Z,100758.13
2023-05-05T21:31:10.396Z,100747.81
2023-05-05T21:34:12.876Z,100747.56
2023-05-05T21:37:14.436Z,100744.38
2023-05-05T21:40:16.528Z,100729.84
2023-05-05T21:43:18.161Z,100742.56
2023-05-05T21:46:19.863Z,100733.34
2023-05-05T21:49:21.463Z,100730.16
2023-05-05T21:52:23.060Z,100720.84
2023-05-05T21:55:24.752Z,100728.50
2023-05-05T21:58:26.467Z,100712.81
2023-05-05T22:01:28.167Z,100722.41
2023-05-05T22:04:29.783Z,100727.69
2023-05-05T22:07:33.043Z,100730.16
2023-05-05T22:10:34.707Z,100723.50
2023-05-05T22:13:37.585Z,100724.22
2023-05-05T22:16:39.285Z,100727.81
2023-05-05T22:19:40.889Z,100735.88
2023-05-05T22:22:42.547Z,100719.16
2023-05-05T22:25:44.528Z,100739.63
2023-05-05T22:28:46.231Z,100725.88
2023-05-05T22:31:47.843Z,100730.31
2023-05-05T22:34:49.573Z,100732.91
2023-05-05T22:37:51.133Z,100722.78
2023-05-05T22:40:52.696Z,100736.97
2023-05-05T22:43:54.343Z,100719.66
2023-05-05T22:46:56.136Z,100740.81
2023-05-05T22:49:58.357Z,100740.94
2023-05-05T22:52:59.987Z,100746.91
2023-05-05T22:56:01.659Z,100727.13
2023-05-05T22:59:03.304Z,100727.78
2023-05-05T23:02:05.539Z,100737.25
2023-05-05T23:05:07.666Z,100745.75
2023-05-05T23:08:09.863Z,100745.34
2023-05-05T23:11:11.493Z,100728.66
2023-05-05T23:14:13.061Z,100715.84
2023-05-05T23:17:14.663Z,100730.03
2023-05-05T23:20:16.254Z,100723.63
2023-05-05T23:23:17.795Z,100720.16
2023-05-05T23:26:19.610Z,100730.47
2023-05-05T23:29:21.338Z,100722.72
2023-05-05T23:32:23.211Z,100720.69
2023-05-05T23:35:24.861Z,100725.25
2023-05-05T23:38:26.469Z,100723.97
2023-05-05T23:41:28.060Z,100728.09
2023-05-05T23:44:29.899Z,100725.47
2023-05-05T23:47:31.487Z,100731.94
2023-05-05T23:50:33.095Z,100720.38
2023-05-05T23:53:34.698Z,100725.66
2023-05-05T23:56:36.291Z,100720.06
2023-05-05T23:59:39.127Z,100721.28
